sensor_id;sensor_type;location;lat;lon;timestamp;pressure;altitude;pressure_sealevel;temperature;humidity
1776;BME280;885;42.626;23.200;2022-11-27T00:02:19;104346.47;;;2.69;100.00
1776;BME280;885;42.626;23.200;2022-11-27T00:04:46;105688.69;;;2.73;100.00
1776;BME280;885;42.626;23.200;2022-11-27T00:07:12;105974.34;;;2.73;100.00
1776;BME280;885;42.626;23.200;2022-11-27T00:09:39;106372.25;;;2.65;100.00
1776;BME280;885;42.626;23.200;2022-11-27T00:12:06;107428.78;;;2.73;100.00
1776;BME280;885;42.626;23.200;2022-11-27T00:14:33;107703.19;;;2.81;100.00
1776;BME280;885;42.626;23.200;2022-11-27T00:17:00;108061.22;;;2.76;100.00
1776;BME280;885;42.626;23.200;2022-11-27T00:19:28;109495.38;;;2.70;100.00
1776;BME280;885;42.626;23.200;2022-11-27T00:21:55;110955.06;;;2.78;100.00
1776;BME280;885;42.626;23.200;2022-11-27T00:24:21;112039.47;;;2.78;100.00
1776;BME280;885;42.626;23.200;2022-11-27T00:26:48;112042.19;;;2.80;100.00
1776;BME280;885;42.626;23.200;2022-11-27T00:29:15;113490.38;;;2.81;100.00
1776;BME280;885;42.626;23.200;2022-11-27T00:31:42;114229.53;;;2.89;100.00
1776;BME280;885;42.626;23.200;2022-11-27T00:34:09;113877.06;;;2.94;100.00
1776;BME280;885;42.626;23.200;2022-11-27T00:36:38;113869.66;;;2.90;100.00
1776;BME280;885;42.626;23.200;2022-11-27T00:39:05;114231.44;;;2.90;100.00
1776;BME280;885;42.626;23.200;2022-11-27T00:41:32;114596.94;;;2.92;100.00
1776;BME280;885;42.626;23.200;2022-11-27T00:43:59;114956.91;;;2.91;100.00
1776;BME280;885;42.626;23.200;2022-11-27T00:46:28;115684.44;;;2.93;100.00
1776;BME280;885;42.626;23.200;2022-11-27T00:48:55;116049.25;;;2.95;100.00
1776;BME280;885;42.626;23.200;2022-11-27T00:51:23;116041.69;;;2.91;100.00
1776;BME280;885;42.626;23.200;2022-11-27T00:53:52;117134.31;;;2.94;100.00
1776;BME280;885;42.626;23.200;2022-11-27T00:56:21;117128.59;;;2.91;100.00
1776;BME280;885;42.626;23.200;2022-11-27T00:58:49;117119.06;;;2.86;100.00
1776;BME280;885;42.626;23.200;2022-11-27T01:01:18;117486.81;;;2.89;100.00
1776;BME280;885;42.626;23.200;2022-11-27T01:03:45;118228.34;;;2.98;100.00
1776;BME280;885;42.626;23.200;2022-11-27T01:06:13;117850.84;;;2.90;100.00
1776;BME280;885;42.626;23.200;2022-11-27T01:08:40;118586.69;;;2.96;100.00
1776;BME280;885;42.626;23.200;2022-11-27T01:11:13;118594.41;;;3.00;100.00
1776;BME280;885;42.626;23.200;2022-11-27T01:13:40;118238.94;;;3.04;100.00
1776;BME280;885;42.626;23.200;2022-11-27T01:16:09;117504.06;;;2.98;100.00
1776;BME280;885;42.626;23.200;2022-11-27T01:18:37;117514.56;;;3.04;100.00
1776;BME280;885;42.626;23.200;2022-11-27T01:21:05;117136.22;;;2.95;100.00
1776;BME280;885;42.626;23.200;2022-11-27T01:23:32;117498.28;;;2.95;100.00
1776;BME280;885;42.626;23.200;2022-11-27T01:25:59;116780.84;;;2.99;100.00
1776;BME280;885;42.626;23.200;2022-11-27T01:28:28;115683.53;;;2.93;100.00
1776;BME280;885;42.626;23.200;2022-11-27T01:30:55;116404.56;;;2.91;100.00
1776;BME280;885;42.626;23.200;2022-11-27T01:33:25;116776.09;;;2.96;100.00
1776;BME280;885;42.626;23.200;2022-11-27T01:35:54;116776.09;;;2.96;100.00
1776;BME280;885;42.626;23.200;2022-11-27T01:38:21;116774.16;;;2.95;100.00
1776;BME280;885;42.626;23.200;2022-11-27T01:40:48;116765.63;;;2.91;100.00
1776;BME280;885;42.626;23.200;2022-11-27T01:43:16;116770.34;;;2.93;100.00
1776;BME280;885;42.626;23.200;2022-11-27T01:45:44;117132.41;;;2.93;100.00
1776;BME280;885;42.626;23.200;2022-11-27T01:48:11;117132.41;;;2.93;100.00
1776;BME280;885;42.626;23.200;2022-11-27T01:50:39;116768.47;;;2.92;100.00
1776;BME280;885;42.626;23.200;2022-11-27T01:53:17;116025.63;;;2.82;100.00
1776;BME280;885;42.626;23.200;2022-11-27T01:55:47;116023.72;;;2.81;100.00
1776;BME280;885;42.626;23.200;2022-11-27T01:58:18;116377.06;;;2.77;100.00
1776;BME280;885;42.626;23.200;2022-11-27T02:00:48;117086.63;;;2.69;100.00
1776;BME280;885;42.626;23.200;2022-11-27T02:03:15;117450.44;;;2.70;100.00
1776;BME280;885;42.626;23.200;2022-11-27T02:05:42;118162.84;;;2.64;100.00
1776;BME280;885;42.626;23.200;2022-11-27T02:08:10;118542.25;;;2.73;100.00
1776;BME280;885;42.626;23.200;2022-11-27T02:10:45;118172.50;;;2.69;100.00
1776;BME280;885;42.626;23.200;2022-11-27T02:13:19;117078.03;;;2.65;100.00
1776;BME280;885;42.626;23.200;2022-11-27T02:15:52;117085.66;;;2.69;100.00
1776;BME280;885;42.626;23.200;2022-11-27T02:18:30;115643.00;;;2.71;100.00
1776;BME280;885;42.626;23.200;2022-11-27T02:21:03;113102.97;;;2.67;100.00
1776;BME280;885;42.626;23.200;2022-11-27T02:23:55;108741.19;;;2.52;100.00
1776;BME280;885;42.626;23.200;2022-11-27T02:26:36;106761.03;;;2.42;100.00
1776;BME280;885;42.626;23.200;2022-11-27T02:29:12;105226.06;;;2.41;100.00
1776;BME280;885;42.626;23.200;2022-11-27T02:31:45;102634.34;;;2.24;100.00
1776;BME280;885;42.626;23.200;2022-11-27T02:34:19;101478.59;;;2.23;99.76
1776;BME280;885;42.626;23.200;2022-11-27T02:36:55;100428.94;;;2.00;99.94
1776;BME280;885;42.626;23.200;2022-11-27T02:39:27;101625.16;;;1.77;100.00
1776;BME280;885;42.626;23.200;2022-11-27T02:42:03;103192.22;;;1.80;100.00
1776;BME280;885;42.626;23.200;2022-11-27T02:44:34;104349.38;;;1.87;100.00
1776;BME280;885;42.626;23.200;2022-11-27T02:47:04;104307.47;;;1.96;100.00
1776;BME280;885;42.626;23.200;2022-11-27T02:49:32;103142.38;;;1.99;100.00
1776;BME280;885;42.626;23.200;2022-11-27T02:52:02;101534.47;;;2.00;100.00
1776;BME280;885;42.626;23.200;2022-11-27T02:54:31;99917.03;;;1.97;99.46
1776;BME280;885;42.626;23.200;2022-11-27T02:57:01;100029.53;;;1.97;100.00
1776;BME280;885;42.626;23.200;2022-11-27T02:59:31;100227.13;;;1.94;100.00
1776;BME280;885;42.626;23.200;2022-11-27T03:02:04;100494.78;;;1.99;100.00
1776;BME280;885;42.626;23.200;2022-11-27T03:04:36;100404.00;;;1.99;100.00
1776;BME280;885;42.626;23.200;2022-11-27T03:07:09;100032.75;;;1.99;100.00
1776;BME280;885;42.626;23.200;2022-11-27T03:09:40;100513.31;;;2.00;100.00
1776;BME280;885;42.626;23.200;2022-11-27T03:12:09;101047.16;;;2.07;100.00
1776;BME280;885;42.626;23.200;2022-11-27T03:14:39;101032.25;;;2.06;100.00
1776;BME280;885;42.626;23.200;2022-11-27T03:17:17;101804.50;;;2.09;100.00
1776;BME280;885;42.626;23.200;2022-11-27T03:19:51;102668.38;;;2.14;100.00
1776;BME280;885;42.626;23.200;2022-11-27T03:22:19;104261.34;;;2.17;100.00
1776;BME280;885;42.626;23.200;2022-11-27T03:24:46;106756.53;;;2.15;100.00
1776;BME280;885;42.626;23.200;2022-11-27T03:27:17;109394.03;;;2.13;100.00
1776;BME280;885;42.626;23.200;2022-11-27T03:29:46;111917.44;;;2.11;100.00
1776;BME280;885;42.626;23.200;2022-11-27T03:32:16;115170.53;;;2.12;100.00
1776;BME280;885;42.626;23.200;2022-11-27T03:34:44;118787.06;;;2.12;100.00
1776;BME280;885;42.626;23.200;2022-11-27T03:37:12;120970.81;;;2.19;100.00
1776;BME280;885;42.626;23.200;2022-11-27T03:39:39;122795.03;;;2.26;100.00
1776;BME280;885;42.626;23.200;2022-11-27T03:42:13;123891.72;;;2.31;100.00
1776;BME280;885;42.626;23.200;2022-11-27T03:44:45;124981.81;;;2.32;100.00
1776;BME280;885;42.626;23.200;2022-11-27T03:47:29;125717.94;;;2.38;100.00
1776;BME280;885;42.626;23.200;2022-11-27T03:50:28;126429.53;;;2.31;100.00
1776;BME280;885;42.626;23.200;2022-11-27T03:53:06;126782.72;;;2.27;100.00
1776;BME280;885;42.626;23.200;2022-11-27T03:55:41;128230.97;;;2.26;100.00
1776;BME280;885;42.626;23.200;2022-11-27T03:58:15;128583.06;;;2.21;100.00
1776;BME280;885;42.626;23.200;2022-11-27T04:00:46;130046.63;;;2.27;100.00
1776;BME280;885;42.626;23.200;2022-11-27T04:03:22;130787.31;;;2.34;100.00
1776;BME280;885;42.626;23.200;2022-11-27T04:05:49;131131.97;;;2.25;100.00
1776;BME280;885;42.626;23.200;2022-11-27T04:08:16;132217.56;;;2.24;100.00
1776;BME280;885;42.626;23.200;2022-11-27T04:10:42;133669.72;;;2.24;100.00
1776;BME280;885;42.626;23.200;2022-11-27T04:13:09;134766.88;;;2.27;100.00
1776;BME280;885;42.626;23.200;2022-11-27T04:15:36;135505.59;;;2.33;100.00
1776;BME280;885;42.626;23.200;2022-11-27T04:18:03;136242.34;;;2.37;100.00
1776;BME280;885;42.626;23.200;2022-11-27T04:20:32;135892.31;;;2.43;100.00
1776;BME280;885;42.626;23.200;2022-11-27T04:22:59;135510.03;;;2.35;100.00
1776;BME280;885;42.626;23.200;2022-11-27T04:25:26;135525.59;;;2.42;100.00
1776;BME280;885;42.626;23.200;2022-11-27T04:27:53;135505.59;;;2.33;100.00
1776;BME280;885;42.626;23.200;2022-11-27T04:30:20;135880.09;;;2.38;100.00
1776;BME280;885;42.626;23.200;2022-11-27T04:32:47;136234.56;;;2.34;100.00
1776;BME280;885;42.626;23.200;2022-11-27T04:35:14;136236.75;;;2.35;100.00
1776;BME280;885;42.626;23.200;2022-11-27T04:37:42;136215.56;;;2.25;100.00
1776;BME280;885;42.626;23.200;2022-11-27T04:40:10;136582.25;;;2.27;100.00
1776;BME280;885;42.626;23.200;2022-11-27T04:42:37;136928.81;;;2.19;100.00
1776;BME280;885;42.626;23.200;2022-11-27T04:45:04;137291.06;;;2.19;100.00
1776;BME280;885;42.626;23.200;2022-11-27T04:47:31;138387.06;;;2.21;100.00
1776;BME280;885;42.626;23.200;2022-11-27T04:49:58;139143.84;;;2.34;100.00
1776;BME280;885;42.626;23.200;2022-11-27T04:52:25;139513.19;;;2.37;100.00
1776;BME280;885;42.626;23.200;2022-11-27T04:54:53;139150.66;;;2.37;100.00
1776;BME280;885;42.626;23.200;2022-11-27T04:57:20;138068.88;;;2.41;100.00
1776;BME280;885;42.626;23.200;2022-11-27T04:59:47;137322.59;;;2.33;100.00
1776;BME280;885;42.626;23.200;2022-11-27T05:02:14;135858.91;;;2.28;100.00
1776;BME280;885;42.626;23.200;2022-11-27T05:04:40;132151.47;;;1.93;100.00
1776;BME280;885;42.626;23.200;2022-11-27T05:07:07;131750.94;;;1.76;100.00
1776;BME280;885;42.626;23.200;2022-11-27T05:09:34;132117.94;;;1.78;100.00
1776;BME280;885;42.626;23.200;2022-11-27T05:12:03;129486.53;;;1.33;100.00
1776;BME280;885;42.626;23.200;2022-11-27T05:14:30;130890.50;;;1.12;100.00
1776;BME280;885;42.626;23.200;2022-11-27T05:16:57;133042.41;;;1.02;100.00
1776;BME280;885;42.626;23.200;2022-11-27T05:19:27;135248.00;;;1.16;100.00
1776;BME280;885;42.626;23.200;2022-11-27T05:21:54;135991.09;;;1.24;100.00
1776;BME280;885;42.626;23.200;2022-11-27T05:24:22;136748.00;;;1.38;100.00
1776;BME280;885;42.626;23.200;2022-11-27T05:26:50;136754.75;;;1.41;100.00
1776;BME280;885;42.626;23.200;2022-11-27T05:29:19;137148.06;;;1.55;100.00
1776;BME280;885;42.626;23.200;2022-11-27T05:31:46;136053.63;;;1.52;100.00
1776;BME280;885;42.626;23.200;2022-11-27T05:34:13;135325.69;;;1.51;100.00
1776;BME280;885;42.626;23.200;2022-11-27T05:36:40;134603.41;;;1.53;100.00
1776;BME280;885;42.626;23.200;2022-11-27T05:39:08;134608.94;;;1.55;100.00
1776;BME280;885;42.626;23.200;2022-11-27T05:41:36;134627.72;;;1.64;100.00
1776;BME280;885;42.626;23.200;2022-11-27T05:44:04;134608.94;;;1.55;100.00
1776;BME280;885;42.626;23.200;2022-11-27T05:46:32;134253.91;;;1.59;100.00
1776;BME280;885;42.626;23.200;2022-11-27T05:48:59;134136.13;;;1.05;100.00
1776;BME280;885;42.626;23.200;2022-11-27T05:51:26;135950.94;;;1.06;100.00
1776;BME280;885;42.626;23.200;2022-11-27T05:53:53;142053.19;;;0.77;100.00
1776;BME280;885;42.626;23.200;2022-11-27T05:56:19;147508.53;;;0.80;100.00
1776;BME280;885;42.626;23.200;2022-11-27T05:58:48;149733.09;;;0.98;100.00
1776;BME280;885;42.626;23.200;2022-11-27T06:01:16;150879.22;;;1.20;100.00
1776;BME280;885;42.626;23.200;2022-11-27T06:03:45;151285.63;;;1.37;100.00
1776;BME280;885;42.626;23.200;2022-11-27T06:06:14;150945.13;;;1.47;100.00
1776;BME280;885;42.626;23.200;2022-11-27T06:08:42;149504.75;;;1.53;100.00
1776;BME280;885;42.626;23.200;2022-11-27T06:11:10;148043.81;;;1.51;100.00
1776;BME280;885;42.626;23.200;2022-11-27T06:13:38;147699.34;;;1.59;100.00
1776;BME280;885;42.626;23.200;2022-11-27T06:16:06;147720.03;;;1.68;100.00
1776;BME280;885;42.626;23.200;2022-11-27T06:18:33;146630.59;;;1.69;100.00
1776;BME280;885;42.626;23.200;2022-11-27T06:21:05;146282.34;;;1.76;100.00
1776;BME280;885;42.626;23.200;2022-11-27T06:23:32;146299.16;;;1.83;100.00
1776;BME280;885;42.626;23.200;2022-11-27T06:26:08;146320.84;;;1.92;100.00
1776;BME280;885;42.626;23.200;2022-11-27T06:28:36;145978.47;;;2.01;100.00
1776;BME280;885;42.626;23.200;2022-11-27T06:31:05;145239.69;;;1.96;100.00
1776;BME280;885;42.626;23.200;2022-11-27T06:33:32;145960.44;;;1.93;100.00
1776;BME280;885;42.626;23.200;2022-11-27T06:35:58;146342.53;;;2.01;100.00
1776;BME280;885;42.626;23.200;2022-11-27T06:38:27;146721.13;;;2.07;100.00
1776;BME280;885;42.626;23.200;2022-11-27T06:40:53;146379.84;;;2.16;100.00
1776;BME280;885;42.626;23.200;2022-11-27T06:43:20;145639.59;;;2.11;100.00
1776;BME280;885;42.626;23.200;2022-11-27T06:45:54;145656.34;;;2.18;100.00
1776;BME280;885;42.626;23.200;2022-11-27T06:48:21;146056.53;;;2.33;100.00
1776;BME280;885;42.626;23.200;2022-11-27T06:50:48;146076.94;;;2.42;100.00
1776;BME280;885;42.626;23.200;2022-11-27T06:53:15;146465.34;;;2.52;100.00
1776;BME280;885;42.626;23.200;2022-11-27T06:55:43;146482.22;;;2.59;100.00
1776;BME280;885;42.626;23.200;2022-11-27T06:58:10;146462.94;;;2.51;100.00
1776;BME280;885;42.626;23.200;2022-11-27T07:00:37;147189.34;;;2.50;100.00
1776;BME280;885;42.626;23.200;2022-11-27T07:03:04;147555.03;;;2.51;100.00
1776;BME280;885;42.626;23.200;2022-11-27T07:05:31;148264.56;;;2.42;100.00
1776;BME280;885;42.626;23.200;2022-11-27T07:07:57;148998.53;;;2.45;100.00
1776;BME280;885;42.626;23.200;2022-11-27T07:10:24;149753.63;;;2.55;100.00
1776;BME280;885;42.626;23.200;2022-11-27T07:12:52;150139.38;;;2.64;100.00
1776;BME280;885;42.626;23.200;2022-11-27T07:15:19;150468.25;;;2.49;100.00
1776;BME280;885;42.626;23.200;2022-11-27T07:17:46;151207.72;;;2.53;100.00
1776;BME280;885;42.626;23.200;2022-11-27T07:20:13;151240.06;;;2.66;100.00
1776;BME280;885;42.626;23.200;2022-11-27T07:22:40;151261.22;;;2.75;100.00
1776;BME280;885;42.626;23.200;2022-11-27T07:25:07;150890.13;;;2.72;100.00
1776;BME280;885;42.626;23.200;2022-11-27T07:27:34;150901.25;;;2.77;100.00
1776;BME280;885;42.626;23.200;2022-11-27T07:30:03;150912.44;;;2.81;100.00
1776;BME280;885;42.626;23.200;2022-11-27T07:32:30;150548.75;;;2.82;100.00
1776;BME280;885;42.626;23.200;2022-11-27T07:34:57;149795.53;;;2.72;100.00
1776;BME280;885;42.626;23.200;2022-11-27T07:37:24;150530.19;;;2.74;100.00
1776;BME280;885;42.626;23.200;2022-11-27T07:39:50;150150.44;;;2.68;100.00
1776;BME280;885;42.626;23.200;2022-11-27T07:42:17;150557.41;;;2.85;100.00
1776;BME280;885;42.626;23.200;2022-11-27T07:44:44;150176.41;;;2.79;100.00
1776;BME280;885;42.626;23.200;2022-11-27T07:47:12;149831.28;;;2.87;100.00
1776;BME280;885;42.626;23.200;2022-11-27T07:49:39;149479.91;;;2.92;100.00
1776;BME280;885;42.626;23.200;2022-11-27T07:52:06;149117.47;;;2.93;100.00
1776;BME280;885;42.626;23.200;2022-11-27T07:54:33;148378.00;;;2.89;100.00
1776;BME280;885;42.626;23.200;2022-11-27T07:57:00;148021.78;;;2.93;100.00
1776;BME280;885;42.626;23.200;2022-11-27T07:59:27;148009.59;;;2.88;100.00
1776;BME280;885;42.626;23.200;2022-11-27T08:01:54;147998.63;;;2.83;100.00
1776;BME280;885;42.626;23.200;2022-11-27T08:04:22;148718.34;;;2.79;100.00
1776;BME280;885;42.626;23.200;2022-11-27T08:06:49;148739.16;;;2.88;100.00
1776;BME280;885;42.626;23.200;2022-11-27T08:09:15;149090.50;;;2.82;100.00
1776;BME280;885;42.626;23.200;2022-11-27T08:11:42;149470.09;;;2.88;100.00
1776;BME280;885;42.626;23.200;2022-11-27T08:14:10;149823.88;;;2.84;100.00
1776;BME280;885;42.626;23.200;2022-11-27T08:16:38;149831.28;;;2.87;100.00
1776;BME280;885;42.626;23.200;2022-11-27T08:19:05;149818.94;;;2.82;100.00
1776;BME280;885;42.626;23.200;2022-11-27T08:21:33;150548.75;;;2.82;100.00
1776;BME280;885;42.626;23.200;2022-11-27T08:24:00;151274.97;;;2.80;100.00
1776;BME280;885;42.626;23.200;2022-11-27T08:26:28;151662.41;;;2.89;100.00
1776;BME280;885;42.626;23.200;2022-11-27T08:28:58;151292.38;;;2.87;100.00
1776;BME280;885;42.626;23.200;2022-11-27T08:31:25;151662.41;;;2.89;100.00
1776;BME280;885;42.626;23.200;2022-11-27T08:33:52;152031.28;;;2.91;100.00
1776;BME280;885;42.626;23.200;2022-11-27T08:36:19;152033.75;;;2.92;100.00
1776;BME280;885;42.626;23.200;2022-11-27T08:38:48;152017.50;;;2.85;100.00
1776;BME280;885;42.626;23.200;2022-11-27T08:41:15;152395.16;;;2.90;100.00
1776;BME280;885;42.626;23.200;2022-11-27T08:43:42;152040.03;;;2.94;100.00
1776;BME280;885;42.626;23.200;2022-11-27T08:46:09;152035.03;;;2.92;100.00
1776;BME280;885;42.626;23.200;2022-11-27T08:48:36;151667.41;;;2.91;100.00
1776;BME280;885;42.626;23.200;2022-11-27T08:51:04;152012.47;;;2.83;100.00
1776;BME280;885;42.626;23.200;2022-11-27T08:53:31;152722.56;;;2.75;100.00
1776;BME280;885;42.626;23.200;2022-11-27T08:56:05;153125.50;;;2.90;100.00
1776;BME280;885;42.626;23.200;2022-11-27T08:58:32;153121.75;;;2.89;100.00
1776;BME280;885;42.626;23.200;2022-11-27T09:01:06;153148.22;;;2.99;100.00
1776;BME280;885;42.626;23.200;2022-11-27T09:03:33;153143.19;;;2.97;100.00
1776;BME280;885;42.626;23.200;2022-11-27T09:05:59;152777.94;;;2.97;100.00
1776;BME280;885;42.626;23.200;2022-11-27T09:08:26;153140.66;;;2.96;100.00
1776;BME280;885;42.626;23.200;2022-11-27T09:10:53;153533.75;;;3.07;100.00
1776;BME280;885;42.626;23.200;2022-11-27T09:13:21;153555.22;;;3.16;100.00
1776;BME280;885;42.626;23.200;2022-11-27T09:15:48;153179.75;;;3.12;100.00
1776;BME280;885;42.626;23.200;2022-11-27T09:18:14;152823.22;;;3.15;100.00
1776;BME280;885;42.626;23.200;2022-11-27T09:20:41;153201.16;;;3.20;100.00
1776;BME280;885;42.626;23.200;2022-11-27T09:23:08;153226.44;;;3.31;100.00
1776;BME280;885;42.626;23.200;2022-11-27T09:25:37;152858.44;;;3.30;100.00
1776;BME280;885;42.626;23.200;2022-11-27T09:28:04;153204.97;;;3.22;100.00
1776;BME280;885;42.626;23.200;2022-11-27T09:30:32;153218.84;;;3.28;100.00
1776;BME280;885;42.626;23.200;2022-11-27T09:32:59;153226.44;;;3.31;100.00
1776;BME280;885;42.626;23.200;2022-11-27T09:35:26;153247.88;;;3.39;100.00
1776;BME280;885;42.626;23.200;2022-11-27T09:37:53;152898.69;;;3.46;100.00
1776;BME280;885;42.626;23.200;2022-11-27T09:40:20;152543.28;;;3.50;100.00
1776;BME280;885;42.626;23.200;2022-11-27T09:42:52;151439.38;;;3.47;100.00
1776;BME280;885;42.626;23.200;2022-11-27T09:45:21;151098.84;;;3.57;100.00
1776;BME280;885;42.626;23.200;2022-11-27T09:47:54;150753.25;;;3.65;100.00
1776;BME280;885;42.626;23.200;2022-11-27T09:50:25;150771.88;;;3.72;100.00
1776;BME280;885;42.626;23.200;2022-11-27T09:52:55;150044.63;;;3.74;100.00
1776;BME280;885;42.626;23.200;2022-11-27T09:55:30;150055.75;;;3.78;100.00
1776;BME280;885;42.626;23.200;2022-11-27T09:58:01;149708.72;;;3.86;100.00
1776;BME280;885;42.626;23.200;2022-11-27T10:00:31;149360.47;;;3.93;100.00
1776;BME280;885;42.626;23.200;2022-11-27T10:02:59;149377.66;;;4.00;100.00
1776;BME280;885;42.626;23.200;2022-11-27T10:05:31;149024.38;;;4.05;100.00
1776;BME280;885;42.626;23.200;2022-11-27T10:08:22;148667.38;;;4.09;100.00
1776;BME280;885;42.626;23.200;2022-11-27T10:11:04;147949.78;;;4.14;100.00
1776;BME280;885;42.626;23.200;2022-11-27T10:13:43;147608.53;;;4.24;100.00
1776;BME280;885;42.626;23.200;2022-11-27T10:16:21;146873.94;;;4.23;100.00
1776;BME280;885;42.626;23.200;2022-11-27T10:18:55;146508.50;;;4.23;100.00
1776;BME280;885;42.626;23.200;2022-11-27T10:21:33;146900.44;;;4.34;100.00
1776;BME280;885;42.626;23.200;2022-11-27T10:24:09;146551.78;;;4.41;100.00
1776;BME280;885;42.626;23.200;2022-11-27T10:26:42;146544.56;;;4.38;100.00
1776;BME280;885;42.626;23.200;2022-11-27T10:29:17;146555.41;;;4.42;100.00
1776;BME280;885;42.626;23.200;2022-11-27T10:31:51;146562.63;;;4.45;100.00
1776;BME280;885;42.626;23.200;2022-11-27T10:34:29;146176.69;;;4.37;100.00
1776;BME280;885;42.626;23.200;2022-11-27T10:37:00;146193.50;;;4.44;100.00
1776;BME280;885;42.626;23.200;2022-11-27T10:39:34;145818.41;;;4.40;100.00
1776;BME280;885;42.626;23.200;2022-11-27T10:42:08;146187.50;;;4.41;100.00
1776;BME280;885;42.626;23.200;2022-11-27T10:44:40;146545.78;;;4.38;100.00
1776;BME280;885;42.626;23.200;2022-11-27T10:47:11;146542.19;;;4.37;100.00
1776;BME280;885;42.626;23.200;2022-11-27T10:49:41;146216.28;;;4.53;100.00
1776;BME280;885;42.626;23.200;2022-11-27T10:52:12;145136.38;;;4.60;100.00
1776;BME280;885;42.626;23.200;2022-11-27T10:54:40;144420.78;;;4.67;100.00
1776;BME280;885;42.626;23.200;2022-11-27T10:57:17;144420.78;;;4.67;100.00
1776;BME280;885;42.626;23.200;2022-11-27T11:00:00;144424.34;;;4.68;100.00
1776;BME280;885;42.626;23.200;2022-11-27T11:02:31;144042.28;;;4.61;100.00
1776;BME280;885;42.626;23.200;2022-11-27T11:05:18;144440.88;;;4.75;100.00
1776;BME280;885;42.626;23.200;2022-11-27T11:07:54;143711.03;;;4.76;100.00
1776;BME280;885;42.626;23.200;2022-11-27T11:10:27;143343.22;;;4.75;100.00
1776;BME280;885;42.626;23.200;2022-11-27T11:13:15;142985.97;;;4.78;100.00
1776;BME280;885;42.626;23.200;2022-11-27T11:15:48;143002.41;;;4.86;100.00
1776;BME280;885;42.626;23.200;2022-11-27T11:18:16;142287.78;;;4.93;100.00
1776;BME280;885;42.626;23.200;2022-11-27T11:20:46;141548.81;;;4.89;100.00
1776;BME280;885;42.626;23.200;2022-11-27T11:23:20;141182.28;;;4.89;100.00
1776;BME280;885;42.626;23.200;2022-11-27T11:25:49;141212.34;;;5.02;100.00
1776;BME280;885;42.626;23.200;2022-11-27T11:28:18;141208.91;;;5.00;100.00
1776;BME280;885;42.626;23.200;2022-11-27T11:30:52;141192.69;;;4.93;100.00
1776;BME280;885;42.626;23.200;2022-11-27T11:33:21;141206.56;;;4.99;100.00
1776;BME280;885;42.626;23.200;2022-11-27T11:35:52;140848.13;;;5.02;100.00
1776;BME280;885;42.626;23.200;2022-11-27T11:38:26;140852.72;;;5.04;100.00
1776;BME280;885;42.626;23.200;2022-11-27T11:41:00;140497.69;;;5.09;99.95
1776;BME280;885;42.626;23.200;2022-11-27T11:43:28;140488.50;;;5.05;99.79
1776;BME280;885;42.626;23.200;2022-11-27T11:46:06;140097.88;;;4.94;100.00
1776;BME280;885;42.626;23.200;2022-11-27T11:48:34;140498.81;;;5.09;100.00
1776;BME280;885;42.626;23.200;2022-11-27T11:51:07;140147.22;;;5.15;99.84
1776;BME280;885;42.626;23.200;2022-11-27T11:53:38;139054.53;;;5.17;98.54
1776;BME280;885;42.626;23.200;2022-11-27T11:56:18;138686.94;;;5.16;98.61
1776;BME280;885;42.626;23.200;2022-11-27T11:58:54;138288.81;;;5.01;99.09
1776;BME280;885;42.626;23.200;2022-11-27T12:01:45;138652.88;;;5.01;99.35
1776;BME280;885;42.626;23.200;2022-11-27T12:04:40;139011.25;;;4.98;99.65
1776;BME280;885;42.626;23.200;2022-11-27T12:07:19;139028.31;;;5.05;99.84
1776;BME280;885;42.626;23.200;2022-11-27T12:09:56;138680.13;;;5.13;99.05
1776;BME280;885;42.626;23.200;2022-11-27T12:12:44;137579.97;;;5.11;97.84
1776;BME280;885;42.626;23.200;2022-11-27T12:15:18;136846.31;;;5.09;97.43
1776;BME280;885;42.626;23.200;2022-11-27T12:17:54;136083.91;;;4.95;97.45
1776;BME280;885;42.626;23.200;2022-11-27T12:20:26;136812.75;;;4.94;98.58
1776;BME280;885;42.626;23.200;2022-11-27T12:26:09;136422.09;;;4.82;98.53
1776;BME280;885;42.626;23.200;2022-11-27T12:29:02;137149.72;;;4.81;99.07
1776;BME280;885;42.626;23.200;2022-11-27T12:31:47;137524.78;;;4.86;99.03
1776;BME280;885;42.626;23.200;2022-11-27T12:34:21;137169.88;;;4.91;99.01
1776;BME280;885;42.626;23.200;2022-11-27T12:37:05;136831.81;;;5.03;98.45
1776;BME280;885;42.626;23.200;2022-11-27T12:39:49;136445.53;;;4.93;98.16
1776;BME280;885;42.626;23.200;2022-11-27T12:42:23;137169.88;;;4.91;98.93
1776;BME280;885;42.626;23.200;2022-11-27T12:44:57;137176.63;;;4.94;99.15
1776;BME280;885;42.626;23.200;2022-11-27T12:47:29;137188.97;;;4.99;98.91
1776;BME280;885;42.626;23.200;2022-11-27T12:50:03;136831.81;;;5.03;98.26
1776;BME280;885;42.626;23.200;2022-11-27T12:52:37;136466.78;;;5.03;97.56
1776;BME280;885;42.626;23.200;2022-11-27T12:55:12;135734.56;;;5.02;97.71
1776;BME280;885;42.626;23.200;2022-11-27T12:57:43;136106.22;;;5.05;97.96
1776;BME280;885;42.626;23.200;2022-11-27T13:00:15;134992.59;;;4.96;97.14
1776;BME280;885;42.626;23.200;2022-11-27T13:02:51;135000.31;;;5.00;97.42
1776;BME280;885;42.626;23.200;2022-11-27T13:05:23;135380.72;;;5.07;97.09
1776;BME280;885;42.626;23.200;2022-11-27T13:07:52;135018.00;;;5.08;97.28
1776;BME280;885;42.626;23.200;2022-11-27T13:10:26;135377.38;;;5.05;97.43
1776;BME280;885;42.626;23.200;2022-11-27T13:13:01;134255.28;;;4.93;96.72
1776;BME280;885;42.626;23.200;2022-11-27T13:15:34;133146.97;;;4.86;96.00
1776;BME280;885;42.626;23.200;2022-11-27T13:18:12;133517.09;;;4.89;96.79
1776;BME280;885;42.626;23.200;2022-11-27T13:20:42;133889.47;;;4.92;96.97
1776;BME280;885;42.626;23.200;2022-11-27T13:23:11;134269.56;;;4.99;96.84
1776;BME280;885;42.626;23.200;2022-11-27T13:25:42;137245.13;;;5.24;99.01
1776;BME280;885;42.626;23.200;2022-11-27T13:28:20;134334.34;;;5.29;95.30
1776;BME280;885;42.626;23.200;2022-11-27T13:30:49;132136.38;;;5.25;93.87
1776;BME280;885;42.626;23.200;2022-11-27T13:33:27;130656.25;;;5.15;93.10